sensor_id;sensor_type;location;lat;lon;timestamp;temperature;humidity
39019;DHT22;24786;51.984;5.872;2022-12-18T00:02:00;-3.30;99.90
39019;DHT22;24786;51.984;5.872;2022-12-18T00:04:26;-3.30;99.90
39019;DHT22;24786;51.984;5.872;2022-12-18T00:06:52;-3.30;99.90
39019;DHT22;24786;51.984;5.872;2022-12-18T00:09:19;-3.40;99.90
39019;DHT22;24786;51.984;5.872;2022-12-18T00:11:45;-3.40;99.90
39019;DHT22;24786;51.984;5.872;2022-12-18T00:14:12;-3.40;99.90
39019;DHT22;24786;51.984;5.872;2022-12-18T00:16:38;-3.40;99.90
39019;DHT22;24786;51.984;5.872;2022-12-18T00:19:05;-3.40;99.90
39019;DHT22;24786;51.984;5.872;2022-12-18T00:21:31;-3.50;99.90
39019;DHT22;24786;51.984;5.872;2022-12-18T00:23:59;-3.50;99.90
39019;DHT22;24786;51.984;5.872;2022-12-18T00:26:32;-3.50;99.90
39019;DHT22;24786;51.984;5.872;2022-12-18T00:29:04;-3.50;99.90
39019;DHT22;24786;51.984;5.872;2022-12-18T00:31:31;-3.50;99.90
39019;DHT22;24786;51.984;5.872;2022-12-18T00:33:57;-3.50;99.90
39019;DHT22;24786;51.984;5.872;2022-12-18T00:36:26;-3.50;99.90
39019;DHT22;24786;51.984;5.872;2022-12-18T00:38:53;-3.50;99.90
39019;DHT22;24786;51.984;5.872;2022-12-18T00:41:19;-3.50;99.90
39019;DHT22;24786;51.984;5.872;2022-12-18T00:44:05;-3.50;99.90
39019;DHT22;24786;51.984;5.872;2022-12-18T00:46:31;-3.50;99.90
39019;DHT22;24786;51.984;5.872;2022-12-18T00:48:57;-3.50;99.90
39019;DHT22;24786;51.984;5.872;2022-12-18T00:51:24;-3.50;99.90
39019;DHT22;24786;51.984;5.872;2022-12-18T00:53:49;-3.50;99.90
39019;DHT22;24786;51.984;5.872;2022-12-18T00:56:15;-3.50;99.90
39019;DHT22;24786;51.984;5.872;2022-12-18T00:58:41;-3.50;99.90
39019;DHT22;24786;51.984;5.872;2022-12-18T01:01:07;-3.50;99.90
39019;DHT22;24786;51.984;5.872;2022-12-18T01:03:32;-3.50;99.90
39019;DHT22;24786;51.984;5.872;2022-12-18T01:05:58;-3.50;99.90
39019;DHT22;24786;51.984;5.872;2022-12-18T01:08:24;-3.50;99.90
39019;DHT22;24786;51.984;5.872;2022-12-18T01:10:49;-3.50;99.90
39019;DHT22;24786;51.984;5.872;2022-12-18T01:13:15;-3.60;99.90
39019;DHT22;24786;51.984;5.872;2022-12-18T01:15:47;-3.60;99.90
39019;DHT22;24786;51.984;5.872;2022-12-18T01:18:13;-3.60;99.90
39019;DHT22;24786;51.984;5.872;2022-12-18T01:20:38;-3.60;99.90
39019;DHT22;24786;51.984;5.872;2022-12-18T01:23:04;-3.60;99.90
39019;DHT22;24786;51.984;5.872;2022-12-18T01:25:29;-3.60;99.90
39019;DHT22;24786;51.984;5.872;2022-12-18T01:27:55;-3.60;99.90
39019;DHT22;24786;51.984;5.872;2022-12-18T01:30:20;-3.70;99.90
39019;DHT22;24786;51.984;5.872;2022-12-18T01:32:46;-3.70;99.90
39019;DHT22;24786;51.984;5.872;2022-12-18T01:35:11;-3.70;99.90
39019;DHT22;24786;51.984;5.872;2022-12-18T01:37:37;-3.60;99.90
39019;DHT22;24786;51.984;5.872;2022-12-18T01:40:03;-3.70;99.90
39019;DHT22;24786;51.984;5.872;2022-12-18T01:42:29;-3.70;99.90
39019;DHT22;24786;51.984;5.872;2022-12-18T01:47:43;-3.70;99.90
39019;DHT22;24786;51.984;5.872;2022-12-18T01:50:19;-3.70;99.90
39019;DHT22;24786;51.984;5.872;2022-12-18T01:53:02;-3.70;99.90
39019;DHT22;24786;51.984;5.872;2022-12-18T01:55:32;-3.70;99.90
39019;DHT22;24786;51.984;5.872;2022-12-18T01:58:00;-3.70;99.90
39019;DHT22;24786;51.984;5.872;2022-12-18T02:00:27;-3.70;99.90
39019;DHT22;24786;51.984;5.872;2022-12-18T02:02:53;-3.80;99.90
39019;DHT22;24786;51.984;5.872;2022-12-18T02:06:08;-3.80;99.90
39019;DHT22;24786;51.984;5.872;2022-12-18T02:16:56;-3.90;99.90
39019;DHT22;24786;51.984;5.872;2022-12-18T02:27:46;-3.90;99.90
39019;DHT22;24786;51.984;5.872;2022-12-18T02:30:14;-3.90;99.90
39019;DHT22;24786;51.984;5.872;2022-12-18T02:32:43;-3.90;99.90
39019;DHT22;24786;51.984;5.872;2022-12-18T02:35:17;-3.90;99.90
39019;DHT22;24786;51.984;5.872;2022-12-18T02:37:46;-3.90;99.90
39019;DHT22;24786;51.984;5.872;2022-12-18T02:40:14;-3.90;99.90
39019;DHT22;24786;51.984;5.872;2022-12-18T02:42:41;-3.90;99.90
39019;DHT22;24786;51.984;5.872;2022-12-18T02:45:07;-3.90;99.90
39019;DHT22;24786;51.984;5.872;2022-12-18T02:47:36;-3.90;99.90
39019;DHT22;24786;51.984;5.872;2022-12-18T02:58:09;-3.90;99.90
39019;DHT22;24786;51.984;5.872;2022-12-18T03:01:01;-4.00;99.90
39019;DHT22;24786;51.984;5.872;2022-12-18T03:04:19;-4.00;99.90
39019;DHT22;24786;51.984;5.872;2022-12-18T03:06:39;-4.00;99.90
39019;DHT22;24786;51.984;5.872;2022-12-18T03:09:12;-4.00;99.90
39019;DHT22;24786;51.984;5.872;2022-12-18T03:11:46;-4.00;99.90
39019;DHT22;24786;51.984;5.872;2022-12-18T03:14:34;-3.90;99.90
39019;DHT22;24786;51.984;5.872;2022-12-18T03:17:03;-3.90;99.90
39019;DHT22;24786;51.984;5.872;2022-12-18T03:19:32;-3.90;99.90
39019;DHT22;24786;51.984;5.872;2022-12-18T03:22:00;-3.90;99.90
39019;DHT22;24786;51.984;5.872;2022-12-18T03:24:29;-4.00;99.90
39019;DHT22;24786;51.984;5.872;2022-12-18T03:27:00;-3.90;99.90
39019;DHT22;24786;51.984;5.872;2022-12-18T03:29:36;-3.90;99.90
39019;DHT22;24786;51.984;5.872;2022-12-18T03:32:18;-4.00;99.90
39019;DHT22;24786;51.984;5.872;2022-12-18T03:34:48;-4.00;99.90
39019;DHT22;24786;51.984;5.872;2022-12-18T03:37:15;-4.00;99.90
39019;DHT22;24786;51.984;5.872;2022-12-18T03:39:41;-4.00;99.90
39019;DHT22;24786;51.984;5.872;2022-12-18T03:42:32;-4.00;99.90
39019;DHT22;24786;51.984;5.872;2022-12-18T03:45:27;-4.00;99.90
39019;DHT22;24786;51.984;5.872;2022-12-18T03:50:41;-4.00;99.90
39019;DHT22;24786;51.984;5.872;2022-12-18T03:55:36;-4.00;99.90
39019;DHT22;24786;51.984;5.872;2022-12-18T03:58:04;-4.00;99.90
39019;DHT22;24786;51.984;5.872;2022-12-18T04:00:31;-4.00;99.90
39019;DHT22;24786;51.984;5.872;2022-12-18T04:03:00;-4.00;99.90
39019;DHT22;24786;51.984;5.872;2022-12-18T04:05:27;-4.00;99.90
39019;DHT22;24786;51.984;5.872;2022-12-18T04:07:55;-4.00;99.90
39019;DHT22;24786;51.984;5.872;2022-12-18T04:10:21;-4.00;99.90
39019;DHT22;24786;51.984;5.872;2022-12-18T04:12:47;-4.00;99.90
39019;DHT22;24786;51.984;5.872;2022-12-18T04:15:13;-3.90;99.90
39019;DHT22;24786;51.984;5.872;2022-12-18T04:17:43;-4.00;99.90
39019;DHT22;24786;51.984;5.872;2022-12-18T04:20:11;-4.00;99.90
39019;DHT22;24786;51.984;5.872;2022-12-18T04:22:37;-4.00;99.90
39019;DHT22;24786;51.984;5.872;2022-12-18T04:25:03;-4.00;99.90
39019;DHT22;24786;51.984;5.872;2022-12-18T04:27:28;-4.00;99.90
39019;DHT22;24786;51.984;5.872;2022-12-18T04:29:54;-4.00;99.90
39019;DHT22;24786;51.984;5.872;2022-12-18T04:32:20;-4.00;99.90
39019;DHT22;24786;51.984;5.872;2022-12-18T04:34:45;-4.00;99.90
39019;DHT22;24786;51.984;5.872;2022-12-18T04:37:11;-4.00;99.90
39019;DHT22;24786;51.984;5.872;2022-12-18T04:39:36;-4.00;99.90
39019;DHT22;24786;51.984;5.872;2022-12-18T04:42:02;-4.00;99.90
39019;DHT22;24786;51.984;5.872;2022-12-18T04:44:28;-4.00;99.90
39019;DHT22;24786;51.984;5.872;2022-12-18T04:46:53;-4.00;99.90
39019;DHT22;24786;51.984;5.872;2022-12-18T04:49:19;-4.10;99.90
39019;DHT22;24786;51.984;5.872;2022-12-18T04:51:44;-4.10;99.90
39019;DHT22;24786;51.984;5.872;2022-12-18T04:54:10;-4.10;99.90
39019;DHT22;24786;51.984;5.872;2022-12-18T04:56:36;-4.10;99.90
39019;DHT22;24786;51.984;5.872;2022-12-18T04:59:01;-4.00;99.90
39019;DHT22;24786;51.984;5.872;2022-12-18T05:01:27;-4.10;99.90
39019;DHT22;24786;51.984;5.872;2022-12-18T05:03:52;-4.10;99.90
39019;DHT22;24786;51.984;5.872;2022-12-18T05:06:18;-4.10;99.90
39019;DHT22;24786;51.984;5.872;2022-12-18T05:08:44;-4.10;99.90
39019;DHT22;24786;51.984;5.872;2022-12-18T05:11:14;-4.10;99.90
39019;DHT22;24786;51.984;5.872;2022-12-18T05:13:44;-4.10;99.90
39019;DHT22;24786;51.984;5.872;2022-12-18T05:16:10;-4.10;99.90
39019;DHT22;24786;51.984;5.872;2022-12-18T05:18:36;-4.20;99.90
39019;DHT22;24786;51.984;5.872;2022-12-18T05:21:02;-4.20;99.90
39019;DHT22;24786;51.984;5.872;2022-12-18T05:23:28;-4.20;99.90
39019;DHT22;24786;51.984;5.872;2022-12-18T05:25:58;-4.20;99.90
39019;DHT22;24786;51.984;5.872;2022-12-18T05:28:25;-4.20;99.90
39019;DHT22;24786;51.984;5.872;2022-12-18T05:30:53;-4.20;99.90
39019;DHT22;24786;51.984;5.872;2022-12-18T05:33:20;-4.30;99.90
39019;DHT22;24786;51.984;5.872;2022-12-18T05:35:54;-4.20;99.90
39019;DHT22;24786;51.984;5.872;2022-12-18T05:38:20;-4.20;99.90
39019;DHT22;24786;51.984;5.872;2022-12-18T05:40:48;-4.20;99.90
39019;DHT22;24786;51.984;5.872;2022-12-18T05:43:13;-4.20;99.90
39019;DHT22;24786;51.984;5.872;2022-12-18T05:45:40;-4.20;99.90
39019;DHT22;24786;51.984;5.872;2022-12-18T05:48:05;-4.20;99.90
39019;DHT22;24786;51.984;5.872;2022-12-18T05:50:34;-4.30;99.90
39019;DHT22;24786;51.984;5.872;2022-12-18T05:53:01;-4.30;99.90
39019;DHT22;24786;51.984;5.872;2022-12-18T05:55:26;-4.30;99.90
39019;DHT22;24786;51.984;5.872;2022-12-18T05:57:52;-4.20;99.90
39019;DHT22;24786;51.984;5.872;2022-12-18T06:00:17;-4.20;99.90
39019;DHT22;24786;51.984;5.872;2022-12-18T06:02:46;-4.20;99.90
39019;DHT22;24786;51.984;5.872;2022-12-18T06:05:12;-4.20;99.90
39019;DHT22;24786;51.984;5.872;2022-12-18T06:07:38;-4.10;99.90
39019;DHT22;24786;51.984;5.872;2022-12-18T06:10:03;-4.10;99.90
39019;DHT22;24786;51.984;5.872;2022-12-18T06:12:29;-4.10;99.90
39019;DHT22;24786;51.984;5.872;2022-12-18T06:14:54;-4.10;99.90
39019;DHT22;24786;51.984;5.872;2022-12-18T06:17:20;-4.10;99.90
39019;DHT22;24786;51.984;5.872;2022-12-18T06:19:46;-4.00;99.90
39019;DHT22;24786;51.984;5.872;2022-12-18T06:22:11;-4.00;99.90
39019;DHT22;24786;51.984;5.872;2022-12-18T06:24:37;-4.00;99.90
39019;DHT22;24786;51.984;5.872;2022-12-18T06:27:02;-4.00;99.90
39019;DHT22;24786;51.984;5.872;2022-12-18T06:29:28;-4.00;99.90
39019;DHT22;24786;51.984;5.872;2022-12-18T06:31:54;-4.00;99.90
39019;DHT22;24786;51.984;5.872;2022-12-18T06:34:19;-4.00;99.90
39019;DHT22;24786;51.984;5.872;2022-12-18T06:36:45;-4.00;99.90
39019;DHT22;24786;51.984;5.872;2022-12-18T06:39:13;-4.00;99.90
39019;DHT22;24786;51.984;5.872;2022-12-18T06:41:39;-4.00;99.90
39019;DHT22;24786;51.984;5.872;2022-12-18T06:44:04;-3.90;99.90
39019;DHT22;24786;51.984;5.872;2022-12-18T06:46:31;-3.90;99.90
39019;DHT22;24786;51.984;5.872;2022-12-18T06:48:57;-3.90;99.90
39019;DHT22;24786;51.984;5.872;2022-12-18T06:51:24;-3.90;99.90
39019;DHT22;24786;51.984;5.872;2022-12-18T06:53:50;-3.90;99.90
39019;DHT22;24786;51.984;5.872;2022-12-18T06:56:16;-3.90;99.90
39019;DHT22;24786;51.984;5.872;2022-12-18T06:58:41;-3.90;99.90
39019;DHT22;24786;51.984;5.872;2022-12-18T07:01:09;-3.90;99.90
39019;DHT22;24786;51.984;5.872;2022-12-18T07:03:36;-3.90;99.90
39019;DHT22;24786;51.984;5.872;2022-12-18T07:06:02;-3.90;99.90
39019;DHT22;24786;51.984;5.872;2022-12-18T07:08:29;-3.90;99.90
39019;DHT22;24786;51.984;5.872;2022-12-18T07:10:55;-3.90;99.90
39019;DHT22;24786;51.984;5.872;2022-12-18T07:13:20;-3.90;99.90
39019;DHT22;24786;51.984;5.872;2022-12-18T07:15:46;-3.90;99.90
39019;DHT22;24786;51.984;5.872;2022-12-18T07:18:12;-3.80;99.90
39019;DHT22;24786;51.984;5.872;2022-12-18T07:20:37;-3.80;99.90
39019;DHT22;24786;51.984;5.872;2022-12-18T07:23:03;-3.80;99.90
39019;DHT22;24786;51.984;5.872;2022-12-18T07:25:33;-3.80;99.90
39019;DHT22;24786;51.984;5.872;2022-12-18T07:27:59;-3.80;99.90
39019;DHT22;24786;51.984;5.872;2022-12-18T07:30:25;-3.80;99.90
39019;DHT22;24786;51.984;5.872;2022-12-18T07:32:50;-3.70;99.90
39019;DHT22;24786;51.984;5.872;2022-12-18T07:35:16;-3.70;99.90
39019;DHT22;24786;51.984;5.872;2022-12-18T07:37:42;-3.70;99.90
39019;DHT22;24786;51.984;5.872;2022-12-18T07:40:08;-3.70;99.90
39019;DHT22;24786;51.984;5.872;2022-12-18T07:42:34;-3.70;99.90
39019;DHT22;24786;51.984;5.872;2022-12-18T07:45:00;-3.60;99.90
39019;DHT22;24786;51.984;5.872;2022-12-18T07:47:27;-3.60;99.90
39019;DHT22;24786;51.984;5.872;2022-12-18T07:49:53;-3.60;99.90
39019;DHT22;24786;51.984;5.872;2022-12-18T07:52:19;-3.60;99.90
39019;DHT22;24786;51.984;5.872;2022-12-18T07:54:44;-3.60;99.90
39019;DHT22;24786;51.984;5.872;2022-12-18T07:57:10;-3.60;99.90
39019;DHT22;24786;51.984;5.872;2022-12-18T07:59:36;-3.50;99.90
39019;DHT22;24786;51.984;5.872;2022-12-18T08:02:02;-3.60;99.90
39019;DHT22;24786;51.984;5.872;2022-12-18T08:04:28;-3.50;99.90
39019;DHT22;24786;51.984;5.872;2022-12-18T08:06:54;-3.50;99.90
39019;DHT22;24786;51.984;5.872;2022-12-18T08:09:19;-3.50;99.90
39019;DHT22;24786;51.984;5.872;2022-12-18T08:11:45;-3.40;99.90
39019;DHT22;24786;51.984;5.872;2022-12-18T08:14:11;-3.40;99.90
39019;DHT22;24786;51.984;5.872;2022-12-18T08:16:40;-3.40;99.90
39019;DHT22;24786;51.984;5.872;2022-12-18T08:19:05;-3.30;99.90
39019;DHT22;24786;51.984;5.872;2022-12-18T08:21:31;-3.30;99.90
39019;DHT22;24786;51.984;5.872;2022-12-18T08:23:59;-3.20;99.90
39019;DHT22;24786;51.984;5.872;2022-12-18T08:26:27;-3.20;99.90
39019;DHT22;24786;51.984;5.872;2022-12-18T08:28:55;-3.10;99.90
39019;DHT22;24786;51.984;5.872;2022-12-18T08:31:21;-3.00;99.90
39019;DHT22;24786;51.984;5.872;2022-12-18T08:33:49;-3.10;99.90
39019;DHT22;24786;51.984;5.872;2022-12-18T08:36:15;-3.00;99.90
39019;DHT22;24786;51.984;5.872;2022-12-18T08:38:40;-3.00;99.90
39019;DHT22;24786;51.984;5.872;2022-12-18T08:41:09;-2.90;99.90
39019;DHT22;24786;51.984;5.872;2022-12-18T08:43:35;-2.90;99.90
39019;DHT22;24786;51.984;5.872;2022-12-18T08:46:21;-2.80;99.90
39019;DHT22;24786;51.984;5.872;2022-12-18T08:48:48;-2.80;99.90
39019;DHT22;24786;51.984;5.872;2022-12-18T08:51:16;-2.80;99.90
39019;DHT22;24786;51.984;5.872;2022-12-18T08:53:42;-2.80;99.90
39019;DHT22;24786;51.984;5.872;2022-12-18T08:56:08;-2.70;99.90
39019;DHT22;24786;51.984;5.872;2022-12-18T08:58:34;-2.70;99.90
39019;DHT22;24786;51.984;5.872;2022-12-18T09:01:04;-2.70;99.90
39019;DHT22;24786;51.984;5.872;2022-12-18T09:03:30;-2.60;99.90
39019;DHT22;24786;51.984;5.872;2022-12-18T09:05:55;-2.60;99.90
39019;DHT22;24786;51.984;5.872;2022-12-18T09:08:21;-2.60;99.90
39019;DHT22;24786;51.984;5.872;2022-12-18T09:10:48;-2.50;99.90
39019;DHT22;24786;51.984;5.872;2022-12-18T09:13:15;-2.40;99.90
39019;DHT22;24786;51.984;5.872;2022-12-18T09:15:49;-2.40;99.90
39019;DHT22;24786;51.984;5.872;2022-12-18T09:18:16;-2.40;99.90
39019;DHT22;24786;51.984;5.872;2022-12-18T09:20:43;-2.30;99.90
39019;DHT22;24786;51.984;5.872;2022-12-18T09:23:09;-2.20;99.90
39019;DHT22;24786;51.984;5.872;2022-12-18T09:25:36;-2.20;99.90
39019;DHT22;24786;51.984;5.872;2022-12-18T09:28:12;-2.10;99.90
39019;DHT22;24786;51.984;5.872;2022-12-18T09:30:40;-2.10;99.90
39019;DHT22;24786;51.984;5.872;2022-12-18T09:33:06;-2.00;99.90
39019;DHT22;24786;51.984;5.872;2022-12-18T09:35:32;-2.00;99.90
39019;DHT22;24786;51.984;5.872;2022-12-18T09:37:58;-1.90;99.90
39019;DHT22;24786;51.984;5.872;2022-12-18T09:40:26;-1.90;99.90
39019;DHT22;24786;51.984;5.872;2022-12-18T09:43:04;-1.80;99.90
39019;DHT22;24786;51.984;5.872;2022-12-18T09:45:52;-1.70;99.90
39019;DHT22;24786;51.984;5.872;2022-12-18T09:48:34;-1.70;99.90
39019;DHT22;24786;51.984;5.872;2022-12-18T09:51:04;-1.60;99.90
39019;DHT22;24786;51.984;5.872;2022-12-18T09:53:34;-1.60;99.90
39019;DHT22;24786;51.984;5.872;2022-12-18T09:56:01;-1.50;99.90
39019;DHT22;24786;51.984;5.872;2022-12-18T09:58:39;-1.50;99.90
39019;DHT22;24786;51.984;5.872;2022-12-18T10:01:15;-1.50;99.90
39019;DHT22;24786;51.984;5.872;2022-12-18T10:03:43;-1.50;99.90
39019;DHT22;24786;51.984;5.872;2022-12-18T10:06:15;-1.40;99.90
39019;DHT22;24786;51.984;5.872;2022-12-18T10:13:56;-1.30;99.90
39019;DHT22;24786;51.984;5.872;2022-12-18T10:16:34;-1.30;99.90
39019;DHT22;24786;51.984;5.872;2022-12-18T10:19:40;-1.20;99.90
39019;DHT22;24786;51.984;5.872;2022-12-18T10:25:05;-1.10;99.90
39019;DHT22;24786;51.984;5.872;2022-12-18T10:27:32;-1.10;99.90
39019;DHT22;24786;51.984;5.872;2022-12-18T10:29:58;-1.00;99.90
39019;DHT22;24786;51.984;5.872;2022-12-18T10:32:27;-1.00;99.90
39019;DHT22;24786;51.984;5.872;2022-12-18T10:34:55;-0.90;99.90
39019;DHT22;24786;51.984;5.872;2022-12-18T10:37:25;-0.90;99.90
39019;DHT22;24786;51.984;5.872;2022-12-18T10:42:35;-0.80;99.90
39019;DHT22;24786;51.984;5.872;2022-12-18T10:45:13;-0.80;99.90
39019;DHT22;24786;51.984;5.872;2022-12-18T10:47:44;-0.70;99.90
39019;DHT22;24786;51.984;5.872;2022-12-18T10:50:29;-0.70;99.90
39019;DHT22;24786;51.984;5.872;2022-12-18T10:52:57;-0.70;99.90
39019;DHT22;24786;51.984;5.872;2022-12-18T10:55:27;-0.70;99.90
39019;DHT22;24786;51.984;5.872;2022-12-18T10:57:53;-0.70;99.90
39019;DHT22;24786;51.984;5.872;2022-12-18T11:00:30;-0.60;99.90
39019;DHT22;24786;51.984;5.872;2022-12-18T11:02:56;-0.60;99.90
39019;DHT22;24786;51.984;5.872;2022-12-18T11:05:31;-0.50;99.90
39019;DHT22;24786;51.984;5.872;2022-12-18T11:07:59;-0.50;99.90
39019;DHT22;24786;51.984;5.872;2022-12-18T11:10:33;-0.40;99.90
39019;DHT22;24786;51.984;5.872;2022-12-18T11:13:18;-0.40;99.90
39019;DHT22;24786;51.984;5.872;2022-12-18T11:15:45;-0.40;99.90
39019;DHT22;24786;51.984;5.872;2022-12-18T11:18:22;-0.30;99.90
39019;DHT22;24786;51.984;5.872;2022-12-18T11:20:52;-0.30;99.90
39019;DHT22;24786;51.984;5.872;2022-12-18T11:23:20;-0.30;99.90
39019;DHT22;24786;51.984;5.872;2022-12-18T11:25:55;-0.20;99.90
39019;DHT22;24786;51.984;5.872;2022-12-18T11:28:37;-0.20;99.90
39019;DHT22;24786;51.984;5.872;2022-12-18T11:31:19;-0.20;99.90
39019;DHT22;24786;51.984;5.872;2022-12-18T11:34:10;-0.20;99.90
39019;DHT22;24786;51.984;5.872;2022-12-18T11:36:46;-0.10;99.90
39019;DHT22;24786;51.984;5.872;2022-12-18T11:39:24;-0.10;99.90
39019;DHT22;24786;51.984;5.872;2022-12-18T11:42:01;-0.10;99.90
39019;DHT22;24786;51.984;5.872;2022-12-18T11:44:54;0.00;99.90
39019;DHT22;24786;51.984;5.872;2022-12-18T11:50:24;0.10;99.90
39019;DHT22;24786;51.984;5.872;2022-12-18T11:52:51;0.10;99.90
39019;DHT22;24786;51.984;5.872;2022-12-18T11:55:40;0.10;99.90
39019;DHT22;24786;51.984;5.872;2022-12-18T12:09:40;0.30;99.90
39019;DHT22;24786;51.984;5.872;2022-12-18T12:12:34;0.30;99.90
39019;DHT22;24786;51.984;5.872;2022-12-18T12:15:52;0.30;99.90
39019;DHT22;24786;51.984;5.872;2022-12-18T12:21:12;0.40;99.90
39019;DHT22;24786;51.984;5.872;2022-12-18T12:23:54;0.40;99.90
39019;DHT22;24786;51.984;5.872;2022-12-18T12:26:33;0.40;99.90
39019;DHT22;24786;51.984;5.872;2022-12-18T12:34:23;0.40;99.90
39019;DHT22;24786;51.984;5.872;2022-12-18T12:36:55;0.40;99.90
39019;DHT22;24786;51.984;5.872;2022-12-18T12:39:34;0.40;99.90
39019;DHT22;24786;51.984;5.872;2022-12-18T12:42:04;0.40;99.90
39019;DHT22;24786;51.984;5.872;2022-12-18T12:44:53;0.50;99.90
39019;DHT22;24786;51.984;5.872;2022-12-18T12:47:33;0.50;99.90
39019;DHT22;24786;51.984;5.872;2022-12-18T12:50:04;0.40;99.90
39019;DHT22;24786;51.984;5.872;2022-12-18T12:52:42;0.50;99.90
39019;DHT22;24786;51.984;5.872;2022-12-18T12:55:16;0.50;99.90
39019;DHT22;24786;51.984;5.872;2022-12-18T12:57:54;0.50;99.90
39019;DHT22;24786;51.984;5.872;2022-12-18T13:00:20;0.50;99.90
39019;DHT22;24786;51.984;5.872;2022-12-18T13:06:16;0.60;99.90
39019;DHT22;24786;51.984;5.872;2022-12-18T13:08:59;0.60;99.90
39019;DHT22;24786;51.984;5.872;2022-12-18T13:11:52;0.60;99.90
39019;DHT22;24786;51.984;5.872;2022-12-18T13:14:39;0.60;99.90
39019;DHT22;24786;51.984;5.872;2022-12-18T13:24:59;0.60;99.90
39019;DHT22;24786;51.984;5.872;2022-12-18T13:30:41;0.60;99.90
39019;DHT22;24786;51.984;5.872;2022-12-18T13:35:50;0.60;99.90
39019;DHT22;24786;51.984;5.872;2022-12-18T13:43:53;0.60;99.90
39019;DHT22;24786;51.984;5.872;2022-12-18T13:46:28;0.60;99.90
39019;DHT22;24786;51.984;5.872;2022-12-18T13:51:26;0.60;99.90
39019;DHT22;24786;51.984;5.872;2022-12-18T13:56:29;0.60;99.90
39019;DHT22;24786;51.984;5.872;2022-12-18T13:59:17;0.60;99.90
39019;DHT22;24786;51.984;5.872;2022-12-18T14:01:58;0.60;99.90
39019;DHT22;24786;51.984;5.872;2022-12-18T14:04:34;0.60;99.90
39019;DHT22;24786;51.984;5.872;2022-12-18T14:07:05;0.60;99.90
39019;DHT22;24786;51.984;5.872;2022-12-18T14:09:39;0.60;99.90
39019;DHT22;24786;51.984;5.872;2022-12-18T14:12:06;0.60;99.90
39019;DHT22;24786;51.984;5.872;2022-12-18T14:14:52;0.60;99.90
39019;DHT22;24786;51.984;5.872;2022-12-18T14:17:18;0.60;99.90
39019;DHT22;24786;51.984;5.872;2022-12-18T14:19:49;0.60;99.90
39019;DHT22;24786;51.984;5.872;2022-12-18T14:22:21;0.60;99.90
39019;DHT22;24786;51.984;5.872;2022-12-18T14:24:47;0.60;99.90
39019;DHT22;24786;51.984;5.872;2022-12-18T14:27:25;0.60;99.90
39019;DHT22;24786;51.984;5.872;2022-12-18T14:29:51;0.60;99.90
39019;DHT22;24786;51.984;5.872;2022-12-18T14:32:19;0.60;99.90
39019;DHT22;24786;51.984;5.872;2022-12-18T14:34:50;0.60;99.90
39019;DHT22;24786;51.984;5.872;2022-12-18T14:37:26;0.60;99.90
39019;DHT22;24786;51.984;5.872;2022-12-18T14:40:01;0.60;99.90
39019;DHT22;24786;51.984;5.872;2022-12-18T14:42:31;0.60;99.90
39019;DHT22;24786;51.984;5.872;2022-12-18T14:47:58;0.60;99.90
39019;DHT22;24786;51.984;5.872;2022-12-18T14:50:24;0.60;99.90
39019;DHT22;24786;51.984;5.872;2022-12-18T14:52:50;0.60;99.90
39019;DHT22;24786;51.984;5.872;2022-12-18T14:55:20;0.60;99.90
39019;DHT22;24786;51.984;5.872;2022-12-18T14:57:50;0.60;99.90
39019;DHT22;24786;51.984;5.872;2022-12-18T15:00:19;0.60;99.90
39019;DHT22;24786;51.984;5.872;2022-12-18T15:02:47;0.60;99.90
39019;DHT22;24786;51.984;5.872;2022-12-18T15:07:50;0.60;99.90
39019;DHT22;24786;51.984;5.872;2022-12-18T15:10:21;0.60;99.90
39019;DHT22;24786;51.984;5.872;2022-12-18T15:13:07;0.60;99.90
39019;DHT22;24786;51.984;5.872;2022-12-18T15:18:00;0.50;99.90
39019;DHT22;24786;51.984;5.872;2022-12-18T15:20:27;0.50;99.90
39019;DHT22;24786;51.984;5.872;2022-12-18T15:22:52;0.50;99.90
39019;DHT22;24786;51.984;5.872;2022-12-18T15:25:45;0.50;99.90
39019;DHT22;24786;51.984;5.872;2022-12-18T15:28:23;0.50;99.90
39019;DHT22;24786;51.984;5.872;2022-12-18T15:33:42;0.50;99.90
39019;DHT22;24786;51.984;5.872;2022-12-18T15:36:15;0.50;99.90
39019;DHT22;24786;51.984;5.872;2022-12-18T15:38:41;0.50;99.90
39019;DHT22;24786;51.984;5.872;2022-12-18T15:41:14;0.50;99.90
39019;DHT22;24786;51.984;5.872;2022-12-18T15:43:40;0.50;99.90
39019;DHT22;24786;51.984;5.872;2022-12-18T15:46:13;0.50;99.90
39019;DHT22;24786;51.984;5.872;2022-12-18T15:48:41;0.50;99.90
39019;DHT22;24786;51.984;5.872;2022-12-18T15:51:34;0.50;99.90
39019;DHT22;24786;51.984;5.872;2022-12-18T15:54:03;0.50;99.90
39019;DHT22;24786;51.984;5.872;2022-12-18T15:56:29;0.50;99.90
39019;DHT22;24786;51.984;5.872;2022-12-18T15:59:15;0.50;99.90
39019;DHT22;24786;51.984;5.872;2022-12-18T16:01:43;0.50;99.90
39019;DHT22;24786;51.984;5.872;2022-12-18T16:04:13;0.40;99.90
39019;DHT22;24786;51.984;5.872;2022-12-18T16:06:39;0.50;99.90
39019;DHT22;24786;51.984;5.872;2022-12-18T16:09:05;0.50;99.90
39019;DHT22;24786;51.984;5.872;2022-12-18T16:11:32;0.40;99.90
39019;DHT22;24786;51.984;5.872;2022-12-18T16:16:47;0.40;99.90
39019;DHT22;24786;51.984;5.872;2022-12-18T16:19:13;0.40;99.90
39019;DHT22;24786;51.984;5.872;2022-12-18T16:21:39;0.40;99.90
39019;DHT22;24786;51.984;5.872;2022-12-18T16:24:05;0.40;99.90
39019;DHT22;24786;51.984;5.872;2022-12-18T16:26:32;0.40;99.90
39019;DHT22;24786;51.984;5.872;2022-12-18T16:28:57;0.40;99.90
39019;DHT22;24786;51.984;5.872;2022-12-18T16:31:23;0.40;99.90
39019;DHT22;24786;51.984;5.872;2022-12-18T16:33:49;0.30;99.90
39019;DHT22;24786;51.984;5.872;2022-12-18T16:36:14;0.40;99.90
39019;DHT22;24786;51.984;5.872;2022-12-18T16:38:40;0.40;99.90
39019;DHT22;24786;51.984;5.872;2022-12-18T16:41:18;0.30;99.90
39019;DHT22;24786;51.984;5.872;2022-12-18T16:43:56;0.40;99.90
39019;DHT22;24786;51.984;5.872;2022-12-18T16:46:22;0.40;99.90
39019;DHT22;24786;51.984;5.872;2022-12-18T16:48:48;0.30;99.90
39019;DHT22;24786;51.984;5.872;2022-12-18T16:51:13;0.30;99.90
39019;DHT22;24786;51.984;5.872;2022-12-18T16:53:39;0.30;99.90
39019;DHT22;24786;51.984;5.872;2022-12-18T16:56:05;0.30;99.90
39019;DHT22;24786;51.984;5.872;2022-12-18T16:58:30;0.30;99.90
39019;DHT22;24786;51.984;5.872;2022-12-18T17:00:56;0.30;99.90
39019;DHT22;24786;51.984;5.872;2022-12-18T17:03:22;0.30;99.90
39019;DHT22;24786;51.984;5.872;2022-12-18T17:05:47;0.30;99.90
39019;DHT22;24786;51.984;5.872;2022-12-18T17:08:13;0.30;99.90
39019;DHT22;24786;51.984;5.872;2022-12-18T17:10:38;0.30;99.90
39019;DHT22;24786;51.984;5.872;2022-12-18T17:13:04;0.30;99.90
39019;DHT22;24786;51.984;5.872;2022-12-18T17:15:29;0.30;99.90
39019;DHT22;24786;51.984;5.872;2022-12-18T17:17:55;0.30;99.90
39019;DHT22;24786;51.984;5.872;2022-12-18T17:20:21;0.30;99.90
39019;DHT22;24786;51.984;5.872;2022-12-18T17:22:46;0.30;99.90
39019;DHT22;24786;51.984;5.872;2022-12-18T17:25:12;0.30;99.90
39019;DHT22;24786;51.984;5.872;2022-12-18T17:27:37;0.30;99.90
39019;DHT22;24786;51.984;5.872;2022-12-18T17:30:04;0.30;99.90
39019;DHT22;24786;51.984;5.872;2022-12-18T17:32:29;0.30;99.90
39019;DHT22;24786;51.984;5.872;2022-12-18T17:34:55;0.30;99.90
39019;DHT22;24786;51.984;5.872;2022-12-18T17:37:20;0.30;99.90
39019;DHT22;24786;51.984;5.872;2022-12-18T17:39:46;0.30;99.90